Time;durP1;ratioP1;P1;durP2;ratioP2;P2;SDS_P1;SDS_P2;PMS_P1;PMS_P2;Temp;Humidity;BMP_temperature;BMP_pressure;BME280_temperature;BME280_humidity;BME280_pressure;Samples;Min_cycle;Max_cycle;Signal;HPM_P1;HPM_P2
2021/06/06 02:13:20;;;;;;;;;;;;;;;13.24;100.00;100167.69;5417863;23;19942;-85
2021/06/06 02:15:47;;;;;;;;;;;;;;;13.16;100.00;100167.19;4945245;29;20213;-84
2021/06/06 02:18:12;;;;;;;;;;;;;;;13.17;100.00;100171.56;4945274;29;20325;-84
2021/06/06 02:20:48;;;;;;;;;;;;;;;13.23;100.00;100160.63;4962035;28;20033;-83
2021/06/06 02:23:15;;;;;;;;;;;;;;;13.23;100.00;100160.63;4962437;28;19918;-81
2021/06/06 02:25:40;;;;;;;;;;;;;;;13.22;100.00;100158.91;4962176;29;19922;-81
2021/06/06 02:28:23;;;;;;;;;;;;;;;13.18;100.00;100164.44;4961870;29;20028;-83
2021/06/06 02:30:58;;;;;;;;;;;;;;;13.17;100.00;100163.59;4961457;29;19974;-82
2021/06/06 02:33:26;;;;;;;;;;;;;;;13.18;100.00;100161.78;4962134;29;19981;-82
2021/06/06 02:35:57;;;;;;;;;;;;;;;13.16;100.00;100159.22;4944704;29;19954;-82
2021/06/06 02:38:30;;;;;;;;;;;;;;;13.15;100.00;100162.81;4961168;28;19934;-82
2021/06/06 02:41:06;;;;;;;;;;;;;;;13.13;100.00;100172.66;4945080;29;20297;-82
2021/06/06 02:43:35;;;;;;;;;;;;;;;13.18;100.00;100165.31;4961686;29;19925;-82
2021/06/06 02:46:02;;;;;;;;;;;;;;;13.18;100.00;100167.09;4962047;29;19996;-83
2021/06/06 02:48:33;;;;;;;;;;;;;;;13.18;100.00;100162.66;4961831;28;19929;-82
2021/06/06 02:51:00;;;;;;;;;;;;;;;13.14;100.00;100154.91;4961189;28;19930;-82
2021/06/06 02:53:28;;;;;;;;;;;;;;;13.17;100.00;100155.59;4944811;29;19925;-83
2021/06/06 02:55:56;;;;;;;;;;;;;;;13.17;100.00;100152.09;4944240;29;19949;-82
2021/06/06 02:58:40;;;;;;;;;;;;;;;13.17;100.00;100155.59;4943761;28;20364;-82
2021/06/06 03:01:16;;;;;;;;;;;;;;;13.16;100.00;100153.00;4961324;28;19933;-82
2021/06/06 03:03:42;;;;;;;;;;;;;;;13.14;100.00;100149.56;4944839;29;19973;-83
2021/06/06 03:06:40;;;;;;;;;;;;;;;13.18;100.00;100152.00;4944429;29;19923;-83
2021/06/06 03:09:06;;;;;;;;;;;;;;;13.16;100.00;100140.59;4918647;28;19946;-82
2021/06/06 03:11:32;;;;;;;;;;;;;;;13.12;100.00;100152.31;4961286;28;19953;-83
2021/06/06 03:14:00;;;;;;;;;;;;;;;13.15;100.00;100152.16;4961351;29;19930;-83
2021/06/06 03:16:27;;;;;;;;;;;;;;;13.14;100.00;100153.09;4944035;29;19933;-82
2021/06/06 03:18:54;;;;;;;;;;;;;;;13.17;100.00;100158.25;4960825;29;19980;-83
2021/06/06 03:21:23;;;;;;;;;;;;;;;13.17;100.00;100157.41;4944065;29;19958;-83
2021/06/06 03:23:51;;;;;;;;;;;;;;;13.18;100.00;100161.78;4960895;29;19923;-83
2021/06/06 03:26:16;;;;;;;;;;;;;;;13.17;100.00;100154.75;4961100;29;20024;-82
2021/06/06 03:28:42;;;;;;;;;;;;;;;13.22;100.00;100153.56;4960646;29;20045;-82
2021/06/06 03:31:16;;;;;;;;;;;;;;;13.20;100.00;100147.47;4960644;29;19922;-82
2021/06/06 03:33:48;;;;;;;;;;;;;;;13.11;100.00;100155.88;4961296;29;19922;-82
2021/06/06 03:36:14;;;;;;;;;;;;;;;13.17;100.00;100155.59;4960706;29;20298;-83
2021/06/06 03:38:40;;;;;;;;;;;;;;;13.17;100.00;100154.75;4960402;29;19933;-82
2021/06/06 03:41:06;;;;;;;;;;;;;;;13.15;100.00;100151.31;4960791;29;19922;-82
2021/06/06 03:43:31;;;;;;;;;;;;;;;13.14;100.00;100155.75;4943874;29;20293;-82
2021/06/06 03:45:57;;;;;;;;;;;;;;;13.19;100.00;100151.06;4943736;29;20020;-82
2021/06/06 03:48:22;;;;;;;;;;;;;;;13.19;100.00;100151.06;4943064;29;19922;-86
2021/06/06 03:50:51;;;;;;;;;;;;;;;13.17;100.00;100154.75;4943550;29;19922;-83
2021/06/06 03:53:17;;;;;;;;;;;;;;;13.14;100.00;100150.44;4943792;29;19985;-83
2021/06/06 03:55:42;;;;;;;;;;;;;;;13.16;100.00;100159.22;4960560;28;19926;-83
2021/06/06 03:58:08;;;;;;;;;;;;;;;13.15;100.00;100154.81;4943300;29;19927;-82
2021/06/06 04:00:37;;;;;;;;;;;;;;;13.16;100.00;100156.56;4960820;28;19927;-83
2021/06/06 12:36:29;;;;;;;;;;;;;;;13.37;100.00;100141.38;5348024;23;19953;-82
2021/06/06 12:38:56;;;;;;;;;;;;;;;13.69;100.00;100140.69;4979357;28;19937;-81
2021/06/06 12:41:21;;;;;;;;;;;;;;;13.68;100.00;100139.84;4953473;28;19933;-82
2021/06/06 12:43:49;;;;;;;;;;;;;;;13.71;100.00;100134.38;4953883;28;19947;-82
2021/06/06 12:46:14;;;;;;;;;;;;;;;13.72;100.00;100140.56;4966941;28;20187;-82
2021/06/06 12:48:58;;;;;;;;;;;;;;;13.62;100.00;100140.16;4977607;28;19934;-81
2021/06/06 12:51:47;;;;;;;;;;;;;;;13.72;100.00;100141.44;4976256;28;19922;-82
2021/06/06 12:54:15;;;;;;;;;;;;;;;13.61;100.00;100138.44;4981321;28;19937;-81
2021/06/06 12:56:41;;;;;;;;;;;;;;;13.60;100.00;100142.91;4977581;28;19977;-82
2021/06/06 12:59:11;;;;;;;;;;;;;;;13.76;100.00;100147.47;4974849;28;19926;-82
2021/06/06 13:01:36;;;;;;;;;;;;;;;13.69;100.00;100140.69;4969647;28;19930;-82
2021/06/06 13:04:09;;;;;;;;;;;;;;;13.60;100.00;100136.72;4974797;28;19929;-81
2021/06/06 13:06:37;;;;;;;;;;;;;;;13.70;100.00;100147.75;4976250;28;20042;-83
2021/06/06 13:09:09;;;;;;;;;;;;;;;13.71;100.00;100144.19;4979169;28;19930;-81
2021/06/06 13:11:36;;;;;;;;;;;;;;;13.73;100.00;100147.63;4973930;28;20274;-81
2021/06/06 13:14:06;;;;;;;;;;;;;;;13.82;100.00;100147.16;4979616;28;19922;-83
2021/06/06 13:16:39;;;;;;;;;;;;;;;13.74;100.00;100150.19;4971963;28;19937;-81
2021/06/06 13:19:24;;;;;;;;;;;;;;;13.79;100.00;100152.63;4973117;28;20041;-82
2021/06/06 13:22:03;;;;;;;;;;;;;;;13.53;100.00;100141.50;4956839;28;20321;-83
2021/06/06 13:24:30;;;;;;;;;;;;;;;13.62;100.00;100149.03;4974755;28;19922;-82
2021/06/06 13:27:01;;;;;;;;;;;;;;;13.60;100.00;100148.22;4979550;28;19933;-82
2021/06/06 13:29:38;;;;;;;;;;;;;;;13.57;100.00;100147.53;4979312;28;20367;-82
2021/06/06 13:32:19;;;;;;;;;;;;;;;13.51;100.00;100148.66;4975095;28;19926;-85
2021/06/06 13:34:46;;;;;;;;;;;;;;;13.65;100.00;100139.16;4972397;28;19954;-82
2021/06/06 13:37:12;;;;;;;;;;;;;;;13.59;100.00;100142.97;4954748;28;19965;-84
2021/06/06 13:39:37;;;;;;;;;;;;;;;13.60;100.00;100142.91;4975533;28;19972;-82
2021/06/06 13:42:05;;;;;;;;;;;;;;;13.70;100.00;100142.44;4967988;28;19930;-80
2021/06/06 13:44:30;;;;;;;;;;;;;;;13.63;100.00;100137.41;4955032;28;20294;-82
2021/06/06 13:46:57;;;;;;;;;;;;;;;13.63;100.00;100150.72;4970876;28;19923;-83
2021/06/06 13:49:22;;;;;;;;;;;;;;;13.62;100.00;100141.03;4970887;28;19934;-80
2021/06/06 13:51:48;;;;;;;;;;;;;;;13.74;100.00;100152.88;4951844;28;19930;-83
2021/06/06 13:54:13;;;;;;;;;;;;;;;13.70;100.00;100150.44;4953288;28;19930;-82
2021/06/06 13:56:43;;;;;;;;;;;;;;;13.80;100.00;100149.00;4973212;28;20005;-83
2021/06/06 13:59:10;;;;;;;;;;;;;;;13.75;100.00;100146.59;4974005;28;19922;-82
2021/06/06 14:01:37;;;;;;;;;;;;;;;13.78;100.00;100149.09;4975928;28;19977;-84
2021/06/06 14:04:03;;;;;;;;;;;;;;;13.70;100.00;100145.09;4968935;28;20005;-82
2021/06/06 14:06:28;;;;;;;;;;;;;;;13.66;100.00;100136.41;4959843;28;20001;-82
2021/06/06 14:08:54;;;;;;;;;;;;;;;13.69;100.00;100146.91;4970199;28;19973;-83
2021/06/06 14:11:21;;;;;;;;;;;;;;;13.58;100.00;100147.44;4952111;28;19930;-83
2021/06/06 14:13:47;;;;;;;;;;;;;;;13.74;100.00;100142.22;4969542;28;19948;-80
2021/06/06 14:16:17;;;;;;;;;;;;;;;13.78;100.00;100148.25;4971355;28;20282;-83
2021/06/06 14:18:43;;;;;;;;;;;;;;;13.84;100.00;100150.59;4956564;28;19929;-82
2021/06/06 14:21:12;;;;;;;;;;;;;;;13.84;100.00;100155.91;4972074;28;19926;-80
2021/06/06 14:23:37;;;;;;;;;;;;;;;13.75;100.00;100153.72;4969725;28;20278;-81
2021/06/06 14:26:03;;;;;;;;;;;;;;;13.80;100.00;100154.34;4955216;29;20266;-82
2021/06/06 14:28:29;;;;;;;;;;;;;;;13.74;100.00;100162.66;4954796;28;20297;-81
2021/06/06 14:30:56;;;;;;;;;;;;;;;13.76;100.00;100158.97;4955779;28;19934;-83
2021/06/06 14:33:24;;;;;;;;;;;;;;;13.75;100.00;100153.72;4972944;28;20244;-82
2021/06/06 14:35:51;;;;;;;;;;;;;;;13.75;100.00;100157.25;4971486;28;19926;-82
2021/06/06 14:38:16;;;;;;;;;;;;;;;13.73;100.00;100150.28;4971908;28;19929;-83
2021/06/06 14:40:43;;;;;;;;;;;;;;;13.72;100.00;100153.88;4969409;28;20037;-83
2021/06/06 14:43:10;;;;;;;;;;;;;;;13.62;100.00;100148.16;4954694;28;19932;-83
2021/06/06 14:45:39;;;;;;;;;;;;;;;13.67;100.00;100147.91;4970337;28;19931;-82
2021/06/06 14:48:06;;;;;;;;;;;;;;;13.71;100.00;100139.69;4959266;28;19918;-83
2021/06/06 14:50:31;;;;;;;;;;;;;;;13.72;100.00;100151.19;4970822;28;19925;-84
2021/06/06 14:53:00;;;;;;;;;;;;;;;13.59;100.00;100140.31;4970449;28;19930;-81
2021/06/06 14:55:35;;;;;;;;;;;;;;;13.63;100.00;100139.22;4972199;28;19922;-83
2021/06/06 14:58:01;;;;;;;;;;;;;;;13.71;100.00;100147.69;4974061;28;19970;-81
2021/06/06 15:00:28;;;;;;;;;;;;;;;13.66;100.00;100139.06;4959227;28;19977;-83
2021/06/06 15:02:54;;;;;;;;;;;;;;;13.60;100.00;100140.22;4972575;28;19945;-82
2021/06/06 15:05:20;;;;;;;;;;;;;;;13.56;100.00;100138.69;4972131;28;20439;-83
2021/06/06 15:07:46;;;;;;;;;;;;;;;13.66;100.00;100133.75;4960541;28;19933;-81
2021/06/06 15:10:12;;;;;;;;;;;;;;;13.85;100.00;100133.69;4976504;28;19922;-81
2021/06/06 15:12:38;;;;;;;;;;;;;;;13.78;100.00;100140.25;4955927;28;20194;-82
2021/06/06 15:15:05;;;;;;;;;;;;;;;13.69;100.00;100138.03;4967814;28;20017;-82
2021/06/06 15:17:31;;;;;;;;;;;;;;;13.78;100.00;100130.44;4953624;28;19922;-82
2021/06/06 15:19:59;;;;;;;;;;;;;;;13.77;100.00;100134.06;4968763;28;20348;-83
2021/06/06 15:22:24;;;;;;;;;;;;;;;13.80;100.00;100135.69;4973138;28;19933;-83
2021/06/06 15:24:50;;;;;;;;;;;;;;;13.81;100.00;100124.97;4968022;28;20210;-84
2021/06/06 15:27:15;;;;;;;;;;;;;;;13.81;100.00;100137.44;4966266;28;19923;-81
2021/06/06 15:29:41;;;;;;;;;;;;;;;13.77;100.00;100138.53;4969937;28;19930;-82
2021/06/06 15:32:07;;;;;;;;;;;;;;;13.86;100.00;100134.53;4968609;28;20305;-81
2021/06/06 15:34:32;;;;;;;;;;;;;;;13.86;100.00;100131.88;4972652;28;19973;-82
2021/06/06 15:36:58;;;;;;;;;;;;;;;13.88;100.00;100129.97;4972957;28;20001;-81
2021/06/06 15:39:25;;;;;;;;;;;;;;;13.86;100.00;100131.88;4968080;28;20379;-82
2021/06/06 15:41:52;;;;;;;;;;;;;;;13.76;100.00;100135.00;4951343;28;19937;-82
2021/06/06 15:44:18;;;;;;;;;;;;;;;13.76;100.00;100131.47;4951474;28;19930;-83
2021/06/06 15:46:45;;;;;;;;;;;;;;;13.77;100.00;100126.09;4971858;28;19922;-81
2021/06/06 15:49:11;;;;;;;;;;;;;;;13.74;100.00;100122.72;4967809;28;19922;-81
2021/06/06 15:51:36;;;;;;;;;;;;;;;13.74;100.00;100118.25;4967360;28;19990;-83
2021/06/06 15:54:03;;;;;;;;;;;;;;;13.58;100.00;100111.97;4970383;28;19933;-82
2021/06/06 15:56:28;;;;;;;;;;;;;;;13.76;100.00;100105.72;4966592;28;20297;-82
2021/06/06 15:58:55;;;;;;;;;;;;;;;13.77;100.00;100102.13;4973259;28;20021;-82
2021/06/06 16:01:20;;;;;;;;;;;;;;;13.75;100.00;100116.44;4950899;28;19926;-82
2021/06/06 16:03:45;;;;;;;;;;;;;;;13.91;100.00;100108.53;4955185;28;19926;-80
2021/06/06 16:06:12;;;;;;;;;;;;;;;13.95;100.00;100108.28;4969732;28;19933;-82
2021/06/06 16:08:38;;;;;;;;;;;;;;;13.72;100.00;100109.47;4951991;28;20202;-82
2021/06/06 16:11:05;;;;;;;;;;;;;;;13.79;100.00;100105.56;4953226;28;19933;-82
2021/06/06 16:13:30;;;;;;;;;;;;;;;13.89;100.00;100099.75;4968279;28;20008;-82
2021/06/06 16:15:56;;;;;;;;;;;;;;;13.78;100.00;100102.97;4950465;28;20516;-82
2021/06/06 16:18:21;;;;;;;;;;;;;;;13.89;100.00;100103.28;4952766;28;20383;-82
2021/06/06 16:20:47;;;;;;;;;;;;;;;13.89;100.00;100097.09;4947476;29;19970;-82
2021/06/06 16:23:12;;;;;;;;;;;;;;;13.91;100.00;100104.06;4951042;28;20313;-83
2021/06/06 16:25:38;;;;;;;;;;;;;;;13.83;100.00;100092.94;4947807;28;20267;-83
2021/06/06 16:28:04;;;;;;;;;;;;;;;13.77;100.00;100096.78;4969977;28;20016;-82
2021/06/06 16:30:30;;;;;;;;;;;;;;;13.87;100.00;100105.16;4967596;28;19926;-82
2021/06/06 16:32:58;;;;;;;;;;;;;;;13.86;100.00;100100.75;4968278;28;19962;-84
2021/06/06 16:35:25;;;;;;;;;;;;;;;13.93;100.00;100099.53;4970490;28;19927;-84
2021/06/06 16:37:50;;;;;;;;;;;;;;;13.82;100.00;100093.88;4964318;28;20026;-83
2021/06/06 16:40:16;;;;;;;;;;;;;;;13.87;100.00;100096.31;4963171;28;20021;-82
2021/06/06 16:42:42;;;;;;;;;;;;;;;13.81;100.00;100097.47;4959332;28;20012;-81
2021/06/06 16:45:10;;;;;;;;;;;;;;;13.82;100.00;100091.22;4950855;28;19922;-81
2021/06/06 16:47:39;;;;;;;;;;;;;;;13.83;100.00;100094.75;4953620;28;19926;-84
2021/06/06 16:50:06;;;;;;;;;;;;;;;13.90;100.00;100091.69;4979076;28;20021;-82
2021/06/06 16:52:33;;;;;;;;;;;;;;;13.83;100.00;100092.94;4964371;28;19923;-83
2021/06/06 16:55:02;;;;;;;;;;;;;;;13.88;100.00;100096.25;4967278;28;19922;-82
2021/06/06 16:57:27;;;;;;;;;;;;;;;13.92;100.00;100094.28;4965042;28;19930;-81
2021/06/06 16:59:52;;;;;;;;;;;;;;;13.85;100.00;100093.75;4973886;28;19989;-82
2021/06/06 17:02:18;;;;;;;;;;;;;;;13.82;100.00;100093.88;4968626;28;19922;-80
2021/06/06 17:04:43;;;;;;;;;;;;;;;13.87;100.00;100091.84;4973430;28;19930;-82
2021/06/06 17:07:09;;;;;;;;;;;;;;;13.97;100.00;100087.75;4956114;29;19922;-82
2021/06/06 17:09:34;;;;;;;;;;;;;;;13.94;100.00;100092.38;4971355;28;19923;-82
2021/06/06 17:11:59;;;;;;;;;;;;;;;13.82;100.00;100093.88;4964478;28;19933;-81
2021/06/06 17:14:26;;;;;;;;;;;;;;;13.81;100.00;100094.81;4972931;28;19922;-80
2021/06/06 17:16:51;;;;;;;;;;;;;;;13.83;100.00;100092.94;4965638;28;20009;-82
2021/06/06 17:19:19;;;;;;;;;;;;;;;13.81;100.00;100097.47;4960673;28;20033;-82
2021/06/06 17:21:45;;;;;;;;;;;;;;;13.90;100.00;100105.00;4980858;28;19926;-82
2021/06/06 17:24:11;;;;;;;;;;;;;;;13.96;100.00;100102.03;4967326;28;20008;-85
2021/06/06 17:26:37;;;;;;;;;;;;;;;13.91;100.00;100101.41;4979647;28;19922;-82
2021/06/06 17:29:07;;;;;;;;;;;;;;;13.88;100.00;100098.03;4964250;28;19934;-82
2021/06/06 17:31:34;;;;;;;;;;;;;;;13.91;100.00;100098.75;4973966;28;20314;-82
2021/06/06 17:34:00;;;;;;;;;;;;;;;13.93;100.00;100104.84;4977803;28;19932;-81
2021/06/06 17:36:26;;;;;;;;;;;;;;;14.07;100.00;100112.13;4976368;28;20205;-81
2021/06/06 17:38:51;;;;;;;;;;;;;;;13.93;100.00;100107.50;4979262;28;20006;-81
2021/06/06 17:41:17;;;;;;;;;;;;;;;13.99;100.00;100106.31;4978299;28;20321;-82
2021/06/06 17:43:42;;;;;;;;;;;;;;;13.90;100.00;100113.00;4980664;28;19954;-84
2021/06/06 17:46:09;;;;;;;;;;;;;;;13.85;100.00;100112.38;4978737;28;19926;-82
2021/06/06 17:48:35;;;;;;;;;;;;;;;13.80;100.00;100107.28;4981153;28;19922;-82
2021/06/06 17:51:01;;;;;;;;;;;;;;;13.73;100.00;100107.66;4962371;28;20001;-83
2021/06/06 17:53:27;;;;;;;;;;;;;;;13.81;100.00;100108.13;4955034;28;20021;-82
2021/06/06 17:55:53;;;;;;;;;;;;;;;13.87;100.00;100113.16;4960611;28;19925;-83
2021/06/06 17:58:20;;;;;;;;;;;;;;;13.80;100.00;100122.38;4956145;28;19985;-82
2021/06/06 18:00:45;;;;;;;;;;;;;;;13.86;100.00;100122.06;4980240;28;19973;-82
2021/06/06 18:03:12;;;;;;;;;;;;;;;13.80;100.00;100127.72;4961607;28;19946;-83
2021/06/06 18:05:38;;;;;;;;;;;;;;;13.77;100.00;100122.56;4957094;28;19933;-86
2021/06/06 18:08:04;;;;;;;;;;;;;;;13.76;100.00;100131.47;4951552;28;19930;-82
2021/06/06 18:10:32;;;;;;;;;;;;;;;13.77;100.00;100127.88;4966291;28;19989;-82
2021/06/06 18:13:00;;;;;;;;;;;;;;;13.77;100.00;100128.75;4975827;28;19970;-82
2021/06/06 18:15:29;;;;;;;;;;;;;;;13.78;100.00;100134.91;4979945;28;19945;-81
2021/06/06 18:17:55;;;;;;;;;;;;;;;13.75;100.00;100141.28;4980505;28;19929;-82
2021/06/06 18:20:22;;;;;;;;;;;;;;;13.77;100.00;100150.06;4979633;28;19922;-82
2021/06/06 18:22:48;;;;;;;;;;;;;;;13.78;100.00;100142.91;4973398;28;19933;-84
2021/06/06 18:28:18;;;;;;;;;;;;;;;13.76;100.00;100147.47;4951693;28;19932;-81
2021/06/06 18:30:44;;;;;;;;;;;;;;;13.73;100.00;100152.94;4970948;28;20266;-82
2021/06/06 18:33:10;;;;;;;;;;;;;;;13.73;100.00;100142.28;4970435;28;19922;-81
2021/06/06 18:35:36;;;;;;;;;;;;;;;13.65;100.00;100150.66;4975648;28;20017;-82
2021/06/06 18:38:04;;;;;;;;;;;;;;;13.74;100.00;100149.34;4971042;28;19929;-83
2021/06/06 18:40:32;;;;;;;;;;;;;;;13.70;100.00;100158.41;4956564;28;20342;-84
2021/06/06 18:42:59;;;;;;;;;;;;;;;13.62;100.00;100151.69;4958900;28;20186;-83
2021/06/06 18:45:27;;;;;;;;;;;;;;;13.81;100.00;100156.94;4966081;28;19922;-82
2021/06/06 18:47:53;;;;;;;;;;;;;;;13.71;100.00;100153.00;4957498;29;19930;-82
2021/06/06 18:50:20;;;;;;;;;;;;;;;13.56;100.00;100156.44;4974247;28;19922;-81
2021/06/06 18:52:46;;;;;;;;;;;;;;;13.70;100.00;100153.94;4981299;28;19922;-82
2021/06/06 18:55:22;;;;;;;;;;;;;;;13.79;100.00;100157.97;4959836;28;20210;-83
2021/06/06 18:57:48;;;;;;;;;;;;;;;13.69;100.00;100159.34;4947309;29;20048;-83
2021/06/06 19:00:16;;;;;;;;;;;;;;;13.78;100.00;100156.22;4955404;28;20024;-81
2021/06/06 19:02:41;;;;;;;;;;;;;;;13.79;100.00;100160.63;4967420;28;19992;-82
2021/06/06 19:05:07;;;;;;;;;;;;;;;13.78;100.00;100172.22;4975745;28;19926;-82
2021/06/06 19:07:34;;;;;;;;;;;;;;;13.78;100.00;100162.41;4971551;28;19923;-82
2021/06/06 19:10:00;;;;;;;;;;;;;;;13.87;100.00;100163.75;4964562;28;20307;-81
2021/06/06 19:12:25;;;;;;;;;;;;;;;13.83;100.00;100167.50;4980352;28;19934;-82
2021/06/06 19:14:54;;;;;;;;;;;;;;;13.77;100.00;100170.50;4980412;28;19929;-82
2021/06/06 19:17:20;;;;;;;;;;;;;;;13.75;100.00;100170.56;4978293;28;20305;-81
2021/06/06 19:19:45;;;;;;;;;;;;;;;13.69;100.00;100164.66;4975365;28;19927;-82
2021/06/06 19:22:11;;;;;;;;;;;;;;;13.59;100.00;100166.94;4978576;28;19936;-81
2021/06/06 19:24:36;;;;;;;;;;;;;;;13.57;100.00;100169.66;4970282;28;19922;-82
2021/06/06 19:27:02;;;;;;;;;;;;;;;13.57;100.00;100166.16;4963706;28;19951;-81
2021/06/06 19:29:27;;;;;;;;;;;;;;;13.72;100.00;100175.16;4978984;28;19961;-81
2021/06/06 19:31:53;;;;;;;;;;;;;;;13.62;100.00;100173.00;4985853;28;20482;-82
2021/06/06 19:34:18;;;;;;;;;;;;;;;13.58;100.00;100179.38;4979064;28;20032;-82
2021/06/06 19:36:45;;;;;;;;;;;;;;;13.67;100.00;100174.53;4979878;28;19921;-83
2021/06/06 19:39:11;;;;;;;;;;;;;;;13.72;100.00;100183.16;4962489;28;20285;-82
2021/06/06 19:41:37;;;;;;;;;;;;;;;13.74;100.00;100184.81;4962744;28;19985;-83
2021/06/06 19:44:02;;;;;;;;;;;;;;;13.76;100.00;100182.09;4963060;28;19933;-81
2021/06/06 19:46:32;;;;;;;;;;;;;;;13.60;100.00;100181.97;4963717;28;20295;-83
2021/06/06 19:48:58;;;;;;;;;;;;;;;13.61;100.00;100181.91;4981262;28;19922;-81
2021/06/06 19:51:25;;;;;;;;;;;;;;;13.72;100.00;100185.81;4974765;28;19944;-82
2021/06/06 19:53:51;;;;;;;;;;;;;;;13.52;100.00;100189.47;4980898;28;19954;-82
2021/06/06 19:56:17;;;;;;;;;;;;;;;13.68;100.00;100195.78;4979610;28;19926;-82
2021/06/06 19:58:43;;;;;;;;;;;;;;;13.75;100.00;100194.53;4963172;28;20257;-82
2021/06/06 20:01:09;;;;;;;;;;;;;;;13.78;100.00;100194.38;4962996;28;19946;-82
2021/06/06 20:03:41;;;;;;;;;;;;;;;13.67;100.00;100187.84;4962633;28;19933;-83
2021/06/06 20:06:07;;;;;;;;;;;;;;;13.60;100.00;100190.81;4979695;28;19945;-82
2021/06/06 20:08:34;;;;;;;;;;;;;;;13.57;100.00;100203.41;4980181;28;19934;-83
2021/06/06 20:11:01;;;;;;;;;;;;;;;13.62;100.00;100194.28;4980358;28;19933;-85
2021/06/06 20:13:30;;;;;;;;;;;;;;;13.60;100.00;100196.13;4979606;28;19914;-84
2021/06/06 20:15:57;;;;;;;;;;;;;;;13.63;100.00;100205.78;4974116;28;20413;-82
2021/06/06 20:18:23;;;;;;;;;;;;;;;13.57;100.00;100198.94;4975520;28;19930;-82
2021/06/06 20:20:48;;;;;;;;;;;;;;;13.61;100.00;100203.19;4973347;28;19937;-82
2021/06/06 20:23:16;;;;;;;;;;;;;;;13.62;100.00;100206.72;4971461;28;20009;-84
2021/06/06 20:25:41;;;;;;;;;;;;;;;13.54;100.00;100203.56;4964526;28;20302;-84
2021/06/06 20:28:08;;;;;;;;;;;;;;;13.57;100.00;100200.75;4960218;29;19922;-83
2021/06/06 20:30:36;;;;;;;;;;;;;;;13.53;100.00;100205.38;4964660;28;19933;-84
